createdAt,value
2022-11-29T00:04:33.376Z,61.87
2022-11-29T00:09:34.994Z,61.47
2022-11-29T00:14:36.644Z,62.91
2022-11-29T00:19:38.350Z,61.42
2022-11-29T00:24:39.921Z,60.69
2022-11-29T00:29:41.514Z,62.49
2022-11-29T00:34:43.289Z,63.02
2022-11-29T00:39:45.154Z,61.22
2022-11-29T00:44:47.131Z,62.25
2022-11-29T00:49:48.818Z,62.60
2022-11-29T00:54:50.510Z,61.27
2022-11-29T00:59:52.094Z,62.35
2022-11-29T01:04:53.698Z,60.85
2022-11-29T01:09:55.314Z,61.92
2022-11-29T01:14:58.690Z,61.72
2022-11-29T01:20:00.298Z,60.79
2022-11-29T01:25:02.030Z,60.92
2022-11-29T01:30:08.118Z,62.01
2022-11-29T01:35:09.766Z,61.42
2022-11-29T01:40:11.782Z,59.83
2022-11-29T01:45:23.700Z,61.50
2022-11-29T01:50:25.454Z,60.88
2022-11-29T01:55:27.180Z,60.45
2022-11-29T02:00:29.706Z,61.40
2022-11-29T02:05:33.246Z,60.51
2022-11-29T02:10:44.568Z,59.92
2022-11-29T02:15:46.191Z,61.00
2022-11-29T02:21:21.571Z,58.78
2022-11-29T02:26:57.555Z,59.29
2022-11-29T02:32:17.610Z,58.40
2022-11-29T02:37:41.570Z,58.54
2022-11-29T02:42:54.368Z,59.57
2022-11-29T02:48:25.211Z,58.26
2022-11-29T02:53:37.227Z,60.37
2022-11-29T02:58:51.471Z,60.77
2022-11-29T03:04:14.207Z,58.91
2022-11-29T03:09:42.859Z,58.99
2022-11-29T03:14:56.067Z,61.87
2022-11-29T03:20:23.548Z,58.42
2022-11-29T03:25:55.941Z,59.98
2022-11-29T03:31:10.292Z,59.30
2022-11-29T03:36:28.554Z,58.97
2022-11-29T03:42:00.075Z,59.49
2022-11-29T03:47:15.765Z,60.35
2022-11-29T03:52:58.818Z,60.10
2022-11-29T03:58:00.400Z,59.09
2022-11-29T04:03:50.098Z,59.24
2022-11-29T04:09:23.006Z,57.76
2022-11-29T04:14:38.470Z,58.54
2022-11-29T04:20:01.935Z,59.73
2022-11-29T04:25:03.770Z,60.56
2022-11-29T04:30:11.239Z,59.41
2022-11-29T04:35:27.891Z,59.94
2022-11-29T04:40:32.642Z,58.30
2022-11-29T04:45:54.717Z,59.24
2022-11-29T04:50:59.258Z,59.61
2022-11-29T04:56:19.590Z,57.16
2022-11-29T05:02:09.297Z,58.67
2022-11-29T05:07:28.053Z,60.34
2022-11-29T05:12:41.665Z,58.64
2022-11-29T05:18:06.927Z,58.87
2022-11-29T05:23:37.818Z,56.51
2022-11-29T05:28:54.322Z,58.69
2022-11-29T05:34:10.772Z,59.96
2022-11-29T05:39:15.256Z,59.75
2022-11-29T05:44:24.490Z,59.68
2022-11-29T05:49:44.729Z,59.24
2022-11-29T05:54:49.088Z,60.54
2022-11-29T05:59:51.838Z,58.80
2022-11-29T06:05:03.985Z,60.05
2022-11-29T06:10:06.900Z,60.25
2022-11-29T06:15:33.806Z,59.81
2022-11-29T06:20:53.543Z,58.43
2022-11-29T06:26:10.846Z,59.28
2022-11-29T06:31:38.586Z,59.89
2022-11-29T06:36:49.371Z,61.03
2022-11-29T06:41:51.198Z,58.42
2022-11-29T06:47:08.612Z,58.20
2022-11-29T06:52:18.948Z,59.78
2022-11-29T06:57:33.262Z,57.80
2022-11-29T07:02:52.817Z,60.80
2022-11-29T07:07:57.599Z,57.50
2022-11-29T07:13:00.936Z,58.30
2022-11-29T07:18:31.988Z,57.92
2022-11-29T07:23:36.378Z,57.40
2022-11-29T07:28:55.755Z,59.35
2022-11-29T07:34:32.236Z,60.02
2022-11-29T07:40:11.174Z,59.81
2022-11-29T07:45:32.015Z,57.93
2022-11-29T07:50:35.747Z,58.66
2022-11-29T07:55:37.444Z,58.58
2022-11-29T08:00:39.810Z,59.27
2022-11-29T08:05:46.947Z,59.07
2022-11-29T08:10:49.189Z,60.43
2022-11-29T08:15:56.600Z,61.02
2022-11-29T08:20:58.346Z,59.95
2022-11-29T08:26:03.572Z,57.50
2022-11-29T08:31:07.963Z,59.08
2022-11-29T08:36:12.816Z,58.37
2022-11-29T08:41:16.234Z,58.94
2022-11-29T08:46:18.985Z,58.73
2022-11-29T08:51:20.769Z,59.11
2022-11-29T09:01:43.862Z,58.72
2022-11-29T09:06:45.582Z,59.39
2022-11-29T09:11:49.628Z,59.61
2022-11-29T09:16:51.437Z,57.17
2022-11-29T09:21:53.315Z,57.65
2022-11-29T09:26:54.893Z,56.98
2022-11-29T09:31:56.568Z,56.33
2022-11-29T09:36:58.264Z,55.65
2022-11-29T09:42:22.855Z,52.72
2022-11-29T09:47:33.512Z,53.69
2022-11-29T09:52:47.576Z,52.85
2022-11-29T09:57:50.660Z,55.14
2022-11-29T10:03:27.026Z,53.40
2022-11-29T10:08:38.251Z,55.73
2022-11-29T10:13:45.769Z,52.66
2022-11-29T10:18:58.817Z,54.67
2022-11-29T10:24:23.205Z,52.36
2022-11-29T10:29:25.083Z,52.68
2022-11-29T10:34:30.929Z,51.47
2022-11-29T10:39:47.595Z,52.86
2022-11-29T10:44:49.259Z,55.36
2022-11-29T10:49:51.034Z,53.38
2022-11-29T10:54:58.601Z,52.99
2022-11-29T11:06:13.878Z,61.58
2022-11-29T11:11:28.282Z,62.03
2022-11-29T11:16:35.614Z,63.17
2022-11-29T11:21:39.263Z,60.99
2022-11-29T11:26:43.838Z,59.57
2022-11-29T11:31:53.553Z,60.49
2022-11-29T11:37:16.245Z,59.89
2022-11-29T11:42:37.191Z,60.26
2022-11-29T11:48:01.834Z,58.49
2022-11-29T11:53:19.378Z,59.56
2022-11-29T11:58:27.546Z,59.10
2022-11-29T12:03:37.252Z,56.61
2022-11-29T12:08:40.062Z,56.61
2022-11-29T12:13:47.881Z,57.03
2022-11-29T12:18:56.267Z,56.27
2022-11-29T12:24:00.656Z,57.23
2022-11-29T12:29:02.587Z,56.00
2022-11-29T12:34:34.834Z,54.42
2022-11-29T12:39:49.890Z,56.45
2022-11-29T12:44:54.162Z,57.20
2022-11-29T12:50:07.904Z,55.86
2022-11-29T12:55:45.289Z,55.65
2022-11-29T13:00:59.942Z,55.06
2022-11-29T13:06:20.241Z,57.33
2022-11-29T13:11:32.706Z,54.66
2022-11-29T13:16:57.875Z,54.80
2022-11-29T13:22:18.592Z,54.74
2022-11-29T13:27:36.729Z,54.78
2022-11-29T13:33:14.126Z,55.75
2022-11-29T13:38:23.658Z,53.90
2022-11-29T13:43:37.475Z,53.05
2022-11-29T13:48:53.451Z,55.74
2022-11-29T13:53:57.407Z,54.12
2022-11-29T13:59:01.247Z,54.35
2022-11-29T14:04:16.205Z,54.65
2022-11-29T14:09:33.075Z,53.85
2022-11-29T14:14:48.269Z,54.27
2022-11-29T14:19:49.978Z,52.26
2022-11-29T14:25:08.195Z,54.31
2022-11-29T14:30:47.287Z,52.29
2022-11-29T14:35:58.174Z,53.23
2022-11-29T14:41:06.644Z,53.00
2022-11-29T14:46:14.460Z,53.93
2022-11-29T14:51:19.351Z,54.00
2022-11-29T14:56:32.747Z,55.74
2022-11-29T15:01:34.680Z,55.27
2022-11-29T15:06:45.160Z,53.26
2022-11-29T15:11:55.984Z,55.67
2022-11-29T15:17:20.859Z,53.31
2022-11-29T15:22:28.903Z,55.75
2022-11-29T15:27:30.667Z,55.02
2022-11-29T15:32:32.909Z,52.54
2022-11-29T15:37:34.523Z,55.04
2022-11-29T15:42:47.315Z,54.52
2022-11-29T15:47:49.003Z,54.32
2022-11-29T15:52:50.773Z,54.85
2022-11-29T15:57:55.372Z,55.33
2022-11-29T16:02:59.827Z,53.58
2022-11-29T16:08:06.280Z,52.23
2022-11-29T16:13:37.038Z,53.95
2022-11-29T16:18:41.088Z,55.02
2022-11-29T16:23:43.388Z,53.53
2022-11-29T16:28:48.530Z,52.84
2022-11-29T16:33:52.390Z,52.85
2022-11-29T16:38:58.874Z,53.10
2022-11-29T16:44:03.322Z,51.74
2022-11-29T16:49:30.935Z,55.11
2022-11-29T16:54:35.693Z,54.75
2022-11-29T16:59:38.702Z,55.78
2022-11-29T17:04:40.727Z,55.97
2022-11-29T17:09:42.452Z,53.87
2022-11-29T17:14:44.409Z,53.80
2022-11-29T17:19:46.237Z,54.05
2022-11-29T17:24:48.636Z,52.64
2022-11-29T17:29:50.427Z,52.57
2022-11-29T17:34:52.041Z,53.53
2022-11-29T17:39:53.711Z,52.44
2022-11-29T17:44:55.363Z,51.93
2022-11-29T17:49:58.108Z,51.81
2022-11-29T17:54:59.814Z,53.72
2022-11-29T18:00:04.216Z,55.78
2022-11-29T18:05:06.432Z,52.70
2022-11-29T18:10:08.868Z,53.42
2022-11-29T18:15:10.470Z,51.33
2022-11-29T18:20:14.040Z,54.05
2022-11-29T18:25:38.036Z,55.76
2022-11-29T18:30:37.563Z,56.68
2022-11-29T18:35:39.239Z,55.35
2022-11-29T18:40:42.510Z,54.22
2022-11-29T18:45:44.153Z,53.02
2022-11-29T18:50:45.826Z,52.29
2022-11-29T18:55:47.390Z,54.14
2022-11-29T19:00:48.983Z,53.99
2022-11-29T19:05:54.510Z,55.86
2022-11-29T19:10:56.509Z,53.94
2022-11-29T19:15:58.217Z,53.54
2022-11-29T19:21:08.134Z,53.58
2022-11-29T19:26:12.251Z,52.36
2022-11-29T19:31:15.801Z,53.07
2022-11-29T19:36:25.989Z,51.78
2022-11-29T19:41:30.402Z,53.46
2022-11-29T19:46:38.468Z,53.23
2022-11-29T19:51:40.134Z,55.52
2022-11-29T19:56:42.052Z,54.43
2022-11-29T20:01:43.941Z,54.21
2022-11-29T20:06:45.602Z,53.61
2022-11-29T20:11:47.460Z,54.84
2022-11-29T20:16:49.106Z,55.03
2022-11-29T20:21:51.210Z,54.92
2022-11-29T20:26:52.976Z,56.15
2022-11-29T20:31:54.630Z,55.66
2022-11-29T20:37:18.667Z,54.53
2022-11-29T20:42:29.587Z,55.40
2022-11-29T20:47:51.227Z,53.57
2022-11-29T20:53:04.667Z,56.16
2022-11-29T20:58:06.730Z,54.68
2022-11-29T21:03:08.275Z,55.58
2022-11-29T21:08:09.838Z,54.21
2022-11-29T21:13:12.962Z,53.28
2022-11-29T21:18:24.178Z,54.10
2022-11-29T21:23:36.206Z,56.03
2022-11-29T21:28:46.849Z,53.70
2022-11-29T21:33:48.754Z,55.02
2022-11-29T21:38:54.832Z,57.74
2022-11-29T21:44:12.548Z,56.78
2022-11-29T21:49:14.241Z,57.13
2022-11-29T21:54:15.814Z,54.75
2022-11-29T21:59:17.533Z,56.24
2022-11-29T22:04:19.508Z,54.08
2022-11-29T22:09:21.345Z,58.11
2022-11-29T22:14:23.863Z,55.11
2022-11-29T22:19:30.531Z,58.03
2022-11-29T22:24:34.510Z,57.07
2022-11-29T22:29:36.156Z,55.17
2022-11-29T22:34:37.698Z,54.47
2022-11-29T22:39:39.335Z,54.49
2022-11-29T22:44:40.931Z,54.00
2022-11-29T22:49:44.472Z,54.78
2022-11-29T22:54:46.183Z,54.90
2022-11-29T22:59:47.926Z,55.45
2022-11-29T23:04:49.569Z,54.37
2022-11-29T23:09:51.457Z,53.54
2022-11-29T23:14:56.224Z,56.38
2022-11-29T23:19:58.428Z,56.78
2022-11-29T23:24:59.998Z,55.45
2022-11-29T23:30:01.673Z,56.01
2022-11-29T23:35:03.372Z,55.97
2022-11-29T23:40:06.455Z,57.60
2022-11-29T23:45:08.291Z,57.70
2022-11-29T23:50:10.822Z,59.17
2022-11-29T23:55:14.452Z,58.27
